Time;durP1;ratioP1;P1;durP2;ratioP2;P2;SDS_P1;SDS_P2;PMS_P1;PMS_P2;Temp;Humidity;BMP_temperature;BMP_pressure;BME280_temperature;BME280_humidity;BME280_pressure;Samples;Min_cycle;Max_cycle;Signal;HPM_P1;HPM_P2
2022/01/11 08:46:10;;;;;;;17.60;7.20;;;21.60;44.50;;;;;;5111735;27;20866;-72
2022/01/11 08:48:35;;;;;;;22.13;8.32;;;21.50;46.20;;;;;;5116227;28;20049;-73
2022/01/11 08:51:01;;;;;;;17.70;8.32;;;21.50;46.10;;;;;;5118348;28;20031;-75
2022/01/11 08:53:26;;;;;;;18.40;9.15;;;21.50;46.00;;;;;;5157104;27;20511;-74
2022/01/11 08:55:52;;;;;;;16.98;7.80;;;21.50;45.90;;;;;;5155148;27;20552;-74
2022/01/11 08:58:20;;;;;;;13.77;7.80;;;21.50;45.80;;;;;;5122661;28;20069;-73
2022/01/11 09:00:46;;;;;;;15.68;8.23;;;21.50;45.70;;;;;;5122652;27;20107;-73
2022/01/11 09:03:12;;;;;;;15.85;8.00;;;21.40;45.50;;;;;;5119278;28;20043;-70
2022/01/11 09:05:39;;;;;;;14.43;8.25;;;21.40;45.30;;;;;;5140497;27;20040;-70
2022/01/11 09:08:05;;;;;;;16.13;8.50;;;21.40;45.20;;;;;;5111627;27;20892;-70
2022/01/11 09:10:30;;;;;;;15.43;8.18;;;21.40;45.10;;;;;;5110739;27;20099;-71
2022/01/11 09:12:56;;;;;;;15.93;8.30;;;21.40;45.00;;;;;;5117851;27;20470;-72
2022/01/11 09:15:22;;;;;;;12.93;7.75;;;21.40;45.00;;;;;;5111888;27;20050;-71
2022/01/11 09:17:50;;;;;;;14.65;7.95;;;21.40;44.90;;;;;;5115094;27;20066;-71
2022/01/11 09:20:17;;;;;;;14.23;8.00;;;21.40;44.80;;;;;;5120354;27;20059;-72
2022/01/11 09:22:43;;;;;;;12.27;7.47;;;21.40;44.80;;;;;;5120769;27;20403;-71
2022/01/11 09:25:10;;;;;;;15.90;8.23;;;21.40;44.80;;;;;;5121359;27;20151;-71
2022/01/11 09:27:36;;;;;;;15.55;8.23;;;21.40;44.70;;;;;;5115311;27;20043;-71
2022/01/11 09:30:03;;;;;;;14.25;8.23;;;21.40;44.70;;;;;;5120744;27;20082;-71
2022/01/11 09:32:28;;;;;;;12.45;7.50;;;21.40;44.60;;;;;;5113607;27;20054;-70
2022/01/11 09:34:54;;;;;;;12.93;7.35;;;21.40;44.60;;;;;;5121297;28;20055;-70
2022/01/11 09:37:20;;;;;;;13.98;8.27;;;21.30;44.50;;;;;;5121329;27;20039;-69
2022/01/11 09:39:47;;;;;;;13.48;7.80;;;21.40;44.40;;;;;;5121922;28;20054;-69
2022/01/11 09:42:13;;;;;;;13.27;7.77;;;21.30;44.30;;;;;;5120843;27;20042;-68
2022/01/11 09:44:39;;;;;;;13.07;7.47;;;21.30;44.40;;;;;;5121713;27;20043;-69
2022/01/11 09:47:14;;;;;;;14.40;7.60;;;21.30;44.30;;;;;;5117412;27;20123;-68
2022/01/11 09:49:41;;;;;;;14.90;8.32;;;21.30;44.00;;;;;;5122292;27;20054;-70
2022/01/11 09:52:09;;;;;;;13.25;7.95;;;21.30;44.20;;;;;;5116851;28;20423;-69
2022/01/11 09:54:40;;;;;;;12.97;7.83;;;21.30;44.20;;;;;;5122025;27;20050;-70
2022/01/11 09:57:07;;;;;;;12.18;7.63;;;21.30;44.10;;;;;;5102442;28;20043;-69
2022/01/11 09:59:33;;;;;;;11.63;7.03;;;21.30;44.10;;;;;;5097576;28;20048;-69
2022/01/11 10:01:59;;;;;;;11.48;6.97;;;21.30;44.10;;;;;;5102847;28;20115;-68
2022/01/11 10:04:32;;;;;;;12.70;6.85;;;21.20;44.00;;;;;;5099978;27;20641;-69
2022/01/11 10:07:07;;;;;;;13.77;6.65;;;21.20;44.00;;;;;;5099401;28;20483;-69
2022/01/11 10:09:45;;;;;;;14.25;7.35;;;21.20;43.90;;;;;;5106154;28;20046;-69
2022/01/11 10:12:12;;;;;;;;;;;21.20;43.90;;;;;;5107372;28;20069;-70
2022/01/11 10:14:43;;;;;;;12.55;7.15;;;21.20;44.60;;;;;;5104944;28;20395;-69
2022/01/11 10:17:19;;;;;;;12.60;7.18;;;21.20;44.20;;;;;;5104384;28;20047;-69
2022/01/11 10:20:25;;;;;;;13.23;7.40;;;21.20;44.00;;;;;;5097717;28;20051;-69
2022/01/11 10:22:59;;;;;;;13.10;7.75;;;21.20;43.80;;;;;;5095573;28;20047;-69
2022/01/11 10:25:27;;;;;;;11.85;7.40;;;21.20;44.00;;;;;;5100996;28;20491;-69
2022/01/11 10:28:01;;;;;;;11.83;7.70;;;21.20;44.00;;;;;;5095180;28;20038;-68
2022/01/11 10:30:28;;;;;;;12.75;7.47;;;21.30;43.90;;;;;;5097474;28;20058;-69
2022/01/11 10:33:00;;;;;;;12.60;7.88;;;21.20;43.90;;;;;;5096081;28;20118;-70
2022/01/11 10:35:40;;;;;;;11.30;7.40;;;21.20;43.90;;;;;;5097646;28;20139;-69
2022/01/11 10:38:06;;;;;;;13.55;8.15;;;21.20;43.90;;;;;;5098311;27;20155;-69
2022/01/11 10:40:35;;;;;;;17.33;7.85;;;21.30;44.20;;;;;;5102930;28;20847;-69
2022/01/11 10:43:04;;;;;;;12.93;7.38;;;21.20;44.20;;;;;;5104561;28;20044;-68
2022/01/11 10:45:33;;;;;;;12.05;6.80;;;21.20;44.30;;;;;;5104513;28;20206;-69
2022/01/11 10:48:11;;;;;;;12.05;7.55;;;21.20;44.40;;;;;;5093882;28;20074;-68
2022/01/11 10:50:38;;;;;;;11.27;7.22;;;21.20;44.40;;;;;;5104888;27;20078;-68
2022/01/11 10:53:10;;;;;;;12.45;7.72;;;21.20;44.50;;;;;;5106597;27;20052;-69
2022/01/11 10:55:36;;;;;;;12.15;7.25;;;21.20;44.60;;;;;;5099034;28;20169;-69
2022/01/11 10:58:10;;;;;;;12.13;7.35;;;21.20;44.80;;;;;;5094094;28;20119;-68
2022/01/11 11:00:40;;;;;;;11.48;6.95;;;21.20;44.90;;;;;;5105277;28;20063;-69
2022/01/11 11:03:18;;;;;;;10.50;6.68;;;21.20;45.00;;;;;;5099041;28;20560;-69
2022/01/11 11:05:50;;;;;;;10.05;6.57;;;21.20;45.10;;;;;;5086865;28;20048;-67
2022/01/11 11:08:27;;;;;;;11.75;6.85;;;21.20;45.20;;;;;;5094286;28;20074;-69
2022/01/11 11:10:56;;;;;;;10.18;6.90;;;21.20;45.20;;;;;;5098160;28;20044;-68
2022/01/11 11:13:29;;;;;;;;;;;21.20;45.30;;;;;;5099579;28;20035;-68
2022/01/11 11:16:07;;;;;;;8.80;6.38;;;21.20;45.20;;;;;;5130145;27;20423;-69
2022/01/11 11:18:38;;;;;;;11.48;6.97;;;21.20;45.30;;;;;;5097961;28;20040;-68
2022/01/11 11:21:18;;;;;;;10.95;6.75;;;21.20;45.30;;;;;;5094760;28;20553;-69
2022/01/11 11:23:44;;;;;;;9.27;6.97;;;21.20;45.20;;;;;;5072777;28;20039;-69
2022/01/11 11:26:11;;;;;;;9.20;6.57;;;21.20;45.20;;;;;;5105828;28;20035;-68
2022/01/11 11:28:38;;;;;;;9.82;6.13;;;21.20;45.50;;;;;;5102277;28;20063;-69
2022/01/11 11:31:04;;;;;;;11.00;6.05;;;21.20;45.30;;;;;;5105427;28;20032;-68
2022/01/11 11:33:30;;;;;;;10.35;6.45;;;21.20;45.30;;;;;;5107414;28;20039;-69
2022/01/11 11:35:57;;;;;;;9.82;6.28;;;21.20;45.30;;;;;;5105137;28;20035;-69
2022/01/11 11:38:30;;;;;;;10.07;6.25;;;21.20;45.40;;;;;;5105106;28;20067;-68
2022/01/11 11:40:56;;;;;;;11.68;6.28;;;21.20;45.40;;;;;;5089668;28;20062;-70
2022/01/11 11:43:22;;;;;;;10.50;6.30;;;21.10;45.50;;;;;;5095498;28;20120;-70
2022/01/11 11:45:48;;;;;;;8.65;6.18;;;21.20;45.90;;;;;;5103475;28;20178;-67
2022/01/11 11:48:23;;;;;;;13.93;6.30;;;21.20;46.00;;;;;;5100043;28;20044;-68
2022/01/11 11:51:06;;;;;;;12.00;6.43;;;21.20;45.90;;;;;;5099978;28;20044;-68
2022/01/11 11:53:37;;;;;;;12.82;7.00;;;21.20;45.80;;;;;;5087409;28;20035;-68
2022/01/11 11:56:14;;;;;;;13.55;7.07;;;21.20;45.90;;;;;;5092822;28;20040;-67
2022/01/11 11:58:46;;;;;;;12.35;6.50;;;21.30;46.00;;;;;;5092538;28;20071;-68
2022/01/11 12:01:45;;;;;;;14.35;6.57;;;21.40;46.00;;;;;;5095954;28;20115;-68
2022/01/11 12:04:15;;;;;;;14.75;6.75;;;21.40;46.00;;;;;;5124587;27;20055;-68
2022/01/11 12:06:43;;;;;;;13.07;6.55;;;21.40;45.90;;;;;;5124522;27;20047;-69
2022/01/11 12:09:10;;;;;;;12.57;6.00;;;21.40;45.90;;;;;;5095641;28;20399;-69
2022/01/11 12:11:47;;;;;;;15.70;6.53;;;21.50;45.90;;;;;;5095687;28;20043;-69
2022/01/11 12:14:28;;;;;;;11.27;6.35;;;21.50;45.90;;;;;;5092880;28;20503;-68
2022/01/11 12:16:54;;;;;;;13.35;6.25;;;21.40;45.90;;;;;;5121695;27;20040;-69
2022/01/11 12:19:42;;;;;;;12.70;6.15;;;21.40;45.90;;;;;;5095530;28;20511;-69
2022/01/11 12:22:07;;;;;;;13.30;6.00;;;21.40;45.60;;;;;;5125550;27;20086;-70
2022/01/11 12:24:45;;;;;;;10.80;5.57;;;21.40;45.60;;;;;;5103001;28;20101;-70
2022/01/11 12:27:11;;;;;;;11.30;6.13;;;21.40;45.50;;;;;;5101870;28;20050;-70
2022/01/11 12:30:06;;;;;;;11.57;6.15;;;21.40;45.60;;;;;;5104640;28;20032;-71
2022/01/11 12:32:38;;;;;;;18.45;5.95;;;21.40;45.50;;;;;;5099629;28;20036;-70
2022/01/11 12:35:08;;;;;;;11.73;5.45;;;21.30;45.50;;;;;;5100028;28;20058;-69
2022/01/11 12:37:38;;;;;;;12.63;5.70;;;21.40;45.60;;;;;;5103274;27;20032;-69
2022/01/11 12:40:26;;;;;;;9.27;5.63;;;21.40;45.70;;;;;;5095303;28;20541;-68
2022/01/11 12:43:07;;;;;;;14.25;5.50;;;21.40;45.70;;;;;;5090287;28;20052;-70
2022/01/11 12:46:00;;;;;;;15.32;5.80;;;21.30;45.70;;;;;;5088230;28;20055;-70
2022/01/11 12:48:45;;;;;;;11.57;5.50;;;21.40;46.00;;;;;;5091048;28;20058;-69
2022/01/11 12:51:37;;;;;;;12.52;5.32;;;21.30;45.90;;;;;;5090150;28;20056;-69
2022/01/11 12:54:49;;;;;;;12.00;5.75;;;21.30;46.00;;;;;;5087032;28;20521;-70
2022/01/11 12:57:15;;;;;;;11.45;5.30;;;21.30;45.90;;;;;;5048234;28;20054;-70
2022/01/11 12:59:45;;;;;;;11.15;5.55;;;21.30;46.90;;;;;;5046260;28;20041;-70
2022/01/11 13:02:16;;;;;;;11.88;5.55;;;21.30;46.10;;;;;;5074541;28;20048;-69
2022/01/11 13:04:42;;;;;;;10.82;5.38;;;21.30;46.20;;;;;;5105345;28;20048;-71
2022/01/11 13:07:35;;;;;;;11.55;5.20;;;21.30;46.20;;;;;;5106724;27;20736;-69
2022/01/11 13:10:19;;;;;;;9.38;4.65;;;21.30;46.10;;;;;;5089080;28;20056;-68
2022/01/11 13:12:48;;;;;;;10.43;5.00;;;21.30;46.20;;;;;;5089140;28;20512;-69
2022/01/11 13:15:22;;;;;;;9.80;5.20;;;21.30;46.30;;;;;;5085086;28;20036;-70
2022/01/11 13:17:48;;;;;;;8.95;4.95;;;21.30;46.30;;;;;;5092056;28;20113;-70
2022/01/11 13:20:14;;;;;;;11.35;5.13;;;21.20;46.30;;;;;;5086588;28;20044;-70
2022/01/11 13:23:30;;;;;;;10.32;5.18;;;21.30;46.40;;;;;;5089898;28;20048;-70
2022/01/11 13:25:59;;;;;;;10.13;5.00;;;21.20;46.40;;;;;;5096519;28;20631;-70
2022/01/11 13:28:46;;;;;;;9.60;4.93;;;21.20;46.50;;;;;;5110453;28;20437;-70
2022/01/11 13:31:15;;;;;;;9.05;4.65;;;21.20;46.50;;;;;;5092543;28;20790;-70
2022/01/11 13:33:47;;;;;;;8.75;4.55;;;21.20;46.60;;;;;;5094419;28;20145;-70
2022/01/11 13:36:17;;;;;;;8.98;4.75;;;21.20;46.50;;;;;;5100171;28;20039;-68
2022/01/11 13:38:49;;;;;;;10.07;5.05;;;21.20;46.60;;;;;;5095296;28;20024;-71
2022/01/11 13:41:30;;;;;;;7.90;4.70;;;21.20;46.60;;;;;;5092599;28;20075;-71
2022/01/11 13:43:58;;;;;;;8.45;4.40;;;21.20;46.50;;;;;;5123333;27;20140;-72
2022/01/11 13:46:24;;;;;;;9.40;4.95;;;21.20;46.40;;;;;;5091777;28;20586;-70
2022/01/11 13:48:52;;;;;;;8.30;3.97;;;21.10;46.40;;;;;;5094672;28;20036;-71
2022/01/11 13:51:30;;;;;;;10.20;4.30;;;21.10;46.30;;;;;;5095665;28;20050;-72
2022/01/11 13:54:08;;;;;;;9.57;4.63;;;21.10;46.20;;;;;;5103033;27;20740;-73
2022/01/11 13:56:39;;;;;;;24.98;4.78;;;21.10;46.20;;;;;;5092671;28;20040;-71
2022/01/11 13:59:05;;;;;;;9.30;4.63;;;21.10;46.30;;;;;;5097360;28;20130;-72
2022/01/11 14:01:31;;;;;;;6.03;4.00;;;21.10;46.40;;;;;;5091652;28;20036;-72
2022/01/11 14:04:04;;;;;;;11.57;4.45;;;21.10;46.50;;;;;;5089683;28;20052;-69
2022/01/11 14:06:56;;;;;;;6.93;4.40;;;21.00;46.40;;;;;;5086710;27;20087;-70
2022/01/11 14:09:33;;;;;;;6.75;4.60;;;21.10;46.40;;;;;;5123217;27;20043;-70
2022/01/11 14:12:12;;;;;;;7.90;4.30;;;21.10;46.30;;;;;;5096092;27;20047;-70
2022/01/11 14:14:38;;;;;;;8.75;4.70;;;21.00;46.30;;;;;;5096336;27;20048;-69
2022/01/11 14:17:18;;;;;;;10.80;4.50;;;21.00;46.30;;;;;;5090119;28;20127;-68
2022/01/11 14:19:48;;;;;;;9.45;4.53;;;21.00;46.10;;;;;;5096127;28;20471;-70
2022/01/11 14:22:15;;;;;;;7.57;3.95;;;21.00;46.10;;;;;;5094640;28;20036;-70
2022/01/11 14:27:31;;;;;;;7.57;4.07;;;21.00;46.00;;;;;;5351515;23;20140;-69
2022/01/11 14:29:59;;;;;;;6.40;4.10;;;21.00;46.00;;;;;;4990468;28;20125;-69
2022/01/11 14:32:25;;;;;;;7.30;4.00;;;21.00;46.00;;;;;;4998076;28;20547;-71
2022/01/11 14:35:10;;;;;;;6.80;4.15;;;21.00;46.00;;;;;;5005668;28;20046;-70
2022/01/11 14:37:36;;;;;;;8.52;4.10;;;20.90;45.70;;;;;;4999284;28;20046;-70
2022/01/11 14:40:15;;;;;;;12.05;3.97;;;20.90;45.80;;;;;;5003640;28;20042;-72
2022/01/11 14:42:41;;;;;;;6.47;3.70;;;20.90;45.70;;;;;;5006432;28;20485;-73
2022/01/11 14:45:12;;;;;;;7.47;4.30;;;20.90;45.70;;;;;;5002792;28;20057;-69
2022/01/11 14:47:45;;;;;;;9.30;4.03;;;20.90;45.70;;;;;;5002878;28;20049;-70
2022/01/11 14:50:13;;;;;;;7.40;4.00;;;20.90;45.70;;;;;;5006512;28;20058;-69
2022/01/11 14:52:59;;;;;;;;;;;20.90;45.70;;;;;;4996660;28;20042;-71
2022/01/11 14:55:53;;;;;;;6.15;3.90;;;20.90;45.70;;;;;;4997682;28;20316;-71
2022/01/11 14:58:28;;;;;;;6.13;3.70;;;20.90;45.80;;;;;;5000280;28;20133;-72
2022/01/11 15:00:56;;;;;;;6.80;3.65;;;20.80;45.80;;;;;;5002618;28;20054;-71
2022/01/11 15:03:44;;;;;;;6.65;3.90;;;20.80;45.80;;;;;;5000913;28;20069;-70
2022/01/11 15:06:19;;;;;;;6.38;3.75;;;20.80;45.80;;;;;;4996983;28;20058;-70
2022/01/11 15:08:57;;;;;;;9.07;4.43;;;20.80;45.90;;;;;;4992639;28;20663;-71
2022/01/11 15:11:32;;;;;;;7.55;3.80;;;20.80;45.80;;;;;;4987331;28;20046;-71
2022/01/11 15:14:13;;;;;;;5.97;3.83;;;20.80;46.10;;;;;;4996907;28;20168;-70
2022/01/11 15:16:39;;;;;;;6.57;3.83;;;20.80;46.30;;;;;;4991171;28;20042;-70
2022/01/11 15:19:06;;;;;;;7.20;4.30;;;20.80;46.30;;;;;;4995249;28;20060;-69
2022/01/11 15:21:32;;;;;;;6.72;3.60;;;20.80;46.40;;;;;;4992910;28;20042;-69
2022/01/11 15:23:59;;;;;;;6.25;3.80;;;20.80;46.40;;;;;;4995625;28;20065;-70
2022/01/11 15:26:27;;;;;;;8.27;3.78;;;20.80;46.40;;;;;;4997812;28;20050;-71
2022/01/11 15:28:59;;;;;;;7.97;3.75;;;20.80;46.50;;;;;;4990413;28;20057;-69
2022/01/11 15:31:25;;;;;;;6.10;3.80;;;20.80;46.40;;;;;;5000713;28;20086;-69
2022/01/11 15:33:51;;;;;;;9.57;3.67;;;20.80;46.50;;;;;;4996162;28;20030;-70
2022/01/11 15:36:17;;;;;;;7.13;3.58;;;20.80;46.60;;;;;;4989859;28;20049;-71
2022/01/11 15:38:43;;;;;;;6.03;3.55;;;20.80;46.60;;;;;;4988951;28;20034;-70
2022/01/11 15:41:08;;;;;;;7.53;4.13;;;20.80;46.70;;;;;;4989919;28;20065;-70
2022/01/11 15:43:35;;;;;;;8.90;3.72;;;20.80;46.70;;;;;;4993104;28;20405;-70
2022/01/11 15:46:01;;;;;;;6.85;4.03;;;20.80;46.70;;;;;;4989487;28;20065;-70
2022/01/11 15:48:27;;;;;;;7.55;3.83;;;20.80;46.70;;;;;;4991135;28;20071;-71
2022/01/11 15:50:54;;;;;;;9.20;3.83;;;20.80;46.80;;;;;;5001744;28;20092;-69
2022/01/11 15:53:23;;;;;;;6.45;3.75;;;20.80;46.80;;;;;;5002949;28;20038;-71
2022/01/11 15:55:49;;;;;;;5.72;3.50;;;20.80;46.80;;;;;;4997567;28;20659;-69
2022/01/11 15:58:14;;;;;;;6.55;3.65;;;20.80;46.80;;;;;;5002090;28;20049;-70
2022/01/11 16:00:41;;;;;;;7.75;3.63;;;20.90;46.90;;;;;;5001701;28;20570;-71
2022/01/11 16:03:08;;;;;;;10.30;4.40;;;20.80;46.90;;;;;;5004675;28;20061;-70
2022/01/11 16:05:33;;;;;;;9.68;4.10;;;20.90;46.90;;;;;;4999086;28;20489;-70
2022/01/11 16:08:00;;;;;;;8.02;3.88;;;20.90;46.90;;;;;;4999546;28;20045;-72
2022/01/11 16:10:25;;;;;;;5.53;3.45;;;20.80;46.90;;;;;;5001959;28;20034;-71
2022/01/11 16:12:51;;;;;;;7.07;3.95;;;20.80;46.90;;;;;;4995808;28;20042;-70
2022/01/11 16:15:17;;;;;;;5.70;3.50;;;20.90;47.00;;;;;;5004203;28;20103;-69
2022/01/11 16:17:43;;;;;;;5.55;3.60;;;20.90;47.10;;;;;;5002803;28;20049;-68
2022/01/11 16:20:09;;;;;;;8.38;3.97;;;20.90;47.00;;;;;;4999739;28;20061;-71
2022/01/11 16:22:34;;;;;;;5.10;3.70;;;20.90;47.00;;;;;;4997371;28;20041;-70
2022/01/11 16:25:00;;;;;;;8.05;3.78;;;20.90;47.00;;;;;;5000953;28;20414;-69
2022/01/11 16:27:27;;;;;;;5.78;3.60;;;21.00;47.20;;;;;;4998620;28;20085;-71
2022/01/11 16:29:53;;;;;;;4.97;3.53;;;21.00;47.20;;;;;;5001900;28;20363;-67
2022/01/11 16:32:22;;;;;;;8.25;3.75;;;21.00;47.20;;;;;;4997838;28;20097;-70
2022/01/11 16:34:47;;;;;;;5.53;3.83;;;21.00;47.20;;;;;;5000693;28;20076;-69
2022/01/11 16:37:15;;;;;;;5.70;3.55;;;21.00;47.10;;;;;;5000407;28;20096;-71
2022/01/11 16:39:56;;;;;;;7.57;3.70;;;21.00;47.00;;;;;;4997605;28;20068;-70
2022/01/11 16:42:38;;;;;;;5.85;3.40;;;21.00;47.00;;;;;;4999699;28;20129;-71
2022/01/11 16:45:08;;;;;;;7.82;3.80;;;21.10;47.10;;;;;;5008591;28;20537;-69
2022/01/11 16:47:34;;;;;;;4.97;3.40;;;21.00;46.90;;;;;;4999150;28;20030;-68
2022/01/11 16:50:04;;;;;;;5.15;3.40;;;21.10;46.90;;;;;;5001955;28;20049;-68
2022/01/11 16:52:31;;;;;;;5.20;3.30;;;21.10;46.90;;;;;;5001614;28;20080;-69
2022/01/11 16:54:57;;;;;;;5.55;3.63;;;21.10;46.90;;;;;;4996482;28;20077;-68
2022/01/11 16:57:23;;;;;;;6.07;3.42;;;21.10;46.90;;;;;;5001470;28;20152;-69
2022/01/11 16:59:49;;;;;;;7.10;3.58;;;21.20;46.90;;;;;;5001731;28;20108;-71
2022/01/11 17:02:15;;;;;;;5.43;3.72;;;21.10;46.80;;;;;;4994175;28;20034;-71
2022/01/11 17:04:41;;;;;;;18.05;3.72;;;21.10;46.80;;;;;;4999806;28;20536;-71
2022/01/11 17:07:07;;;;;;;11.32;3.65;;;21.10;46.80;;;;;;5002634;28;20077;-69
2022/01/11 17:09:33;;;;;;;8.02;3.83;;;21.10;46.90;;;;;;5001245;28;20039;-70
2022/01/11 17:12:01;;;;;;;14.20;4.00;;;21.10;47.00;;;;;;5001387;28;20049;-72
2022/01/11 17:14:28;;;;;;;9.90;4.77;;;21.10;47.20;;;;;;5003983;28;20516;-72
2022/01/11 17:16:54;;;;;;;7.23;4.23;;;21.10;47.40;;;;;;5021546;28;20055;-71
2022/01/11 17:19:20;;;;;;;9.85;4.03;;;21.10;47.60;;;;;;5001592;28;20311;-73
2022/01/11 17:21:47;;;;;;;11.05;4.55;;;21.10;47.90;;;;;;5001965;28;20117;-68
2022/01/11 17:24:13;;;;;;;7.57;4.47;;;21.10;48.30;;;;;;5018273;28;20041;-72
2022/01/11 17:26:39;;;;;;;8.20;4.30;;;21.10;48.70;;;;;;4999558;28;20463;-69
2022/01/11 17:29:06;;;;;;;9.30;5.50;;;21.10;49.20;;;;;;5001152;28;20057;-69
2022/01/11 17:31:32;;;;;;;9.88;4.93;;;21.10;49.90;;;;;;4997064;28;20092;-69
2022/01/11 17:33:59;;;;;;;7.75;4.60;;;21.10;50.50;;;;;;4998550;28;20058;-70
2022/01/11 17:36:25;;;;;;;7.10;4.45;;;21.10;50.90;;;;;;4999770;28;20141;-69
2022/01/11 17:38:50;;;;;;;8.65;4.30;;;21.10;51.10;;;;;;4999367;28;20033;-71
2022/01/11 17:41:16;;;;;;;9.48;4.70;;;21.10;51.40;;;;;;4997775;28;20049;-71
2022/01/11 17:43:41;;;;;;;9.82;4.30;;;21.10;51.50;;;;;;4994107;28;20029;-71
2022/01/11 17:46:07;;;;;;;8.68;4.30;;;21.10;51.50;;;;;;4999165;28;20050;-70
2022/01/11 17:48:33;;;;;;;10.98;4.18;;;21.10;51.60;;;;;;4997432;28;20115;-69
2022/01/11 17:50:59;;;;;;;7.30;4.40;;;21.10;51.60;;;;;;4994138;28;20079;-69
2022/01/11 17:53:31;;;;;;;9.35;4.45;;;21.10;51.40;;;;;;4998103;28;20033;-69
2022/01/11 17:55:56;;;;;;;7.38;4.65;;;21.20;51.40;;;;;;4999761;28;20077;-71
2022/01/11 17:58:22;;;;;;;7.00;4.43;;;21.10;51.30;;;;;;5000388;28;20518;-72
2022/01/11 18:00:48;;;;;;;7.65;4.18;;;21.20;51.30;;;;;;4993613;28;20931;-69
2022/01/11 18:03:14;;;;;;;7.78;4.35;;;21.10;51.20;;;;;;4990154;28;20397;-69
2022/01/11 18:05:40;;;;;;;8.73;4.00;;;21.10;51.20;;;;;;4995629;28;20054;-68
2022/01/11 18:08:06;;;;;;;7.57;4.03;;;21.20;51.20;;;;;;5000585;28;20046;-69
2022/01/11 18:10:32;;;;;;;7.15;3.83;;;21.10;51.10;;;;;;5001099;28;20044;-68
2022/01/11 18:13:00;;;;;;;8.90;3.75;;;21.20;51.10;;;;;;5000003;28;20042;-67
2022/01/11 18:15:26;;;;;;;8.95;4.40;;;21.20;51.10;;;;;;5003328;28;20030;-67
2022/01/11 18:17:51;;;;;;;7.25;3.90;;;21.20;51.00;;;;;;5001418;28;20051;-68
2022/01/11 18:20:17;;;;;;;7.22;3.90;;;21.20;51.00;;;;;;5005712;28;20046;-69
2022/01/11 18:22:43;;;;;;;5.82;3.78;;;21.20;51.00;;;;;;5004550;28;20477;-69
2022/01/11 18:25:10;;;;;;;6.93;3.95;;;21.20;50.90;;;;;;5002694;28;20050;-68
2022/01/11 18:27:36;;;;;;;6.15;3.60;;;21.20;50.90;;;;;;4999619;28;20042;-68
2022/01/11 18:30:04;;;;;;;6.40;3.63;;;21.20;50.70;;;;;;5003258;28;20128;-69
2022/01/11 18:32:30;;;;;;;6.65;4.35;;;21.20;50.70;;;;;;4999521;28;20083;-69
2022/01/11 18:34:57;;;;;;;6.90;3.90;;;21.20;50.60;;;;;;4988740;28;20042;-69
2022/01/11 18:37:23;;;;;;;7.10;3.72;;;21.20;50.60;;;;;;5001249;28;20113;-69
2022/01/11 18:39:50;;;;;;;7.28;3.78;;;21.20;50.50;;;;;;5005820;28;20056;-69
2022/01/11 18:42:16;;;;;;;7.80;3.75;;;21.20;50.50;;;;;;5004380;28;20052;-70
2022/01/11 18:44:43;;;;;;;6.35;4.18;;;21.20;50.40;;;;;;5001823;28;20042;-70
2022/01/11 18:47:08;;;;;;;8.85;4.10;;;21.20;50.20;;;;;;5003185;28;20405;-69
2022/01/11 18:49:35;;;;;;;7.25;4.18;;;21.20;50.20;;;;;;4998263;28;20055;-69
2022/01/11 18:52:01;;;;;;;10.63;4.18;;;21.20;50.10;;;;;;5006363;28;20050;-69
2022/01/11 18:54:27;;;;;;;6.18;3.50;;;21.20;50.10;;;;;;4991684;28;20069;-71
2022/01/11 18:56:52;;;;;;;8.35;4.07;;;21.30;51.10;;;;;;5004957;28;20046;-70
2022/01/11 18:59:18;;;;;;;10.50;3.90;;;21.20;50.40;;;;;;5003125;28;20210;-70
2022/01/11 19:01:44;;;;;;;9.88;3.95;;;21.30;50.50;;;;;;5001221;28;20066;-70
2022/01/11 19:04:10;;;;;;;7.82;4.35;;;21.30;50.60;;;;;;5003039;28;20042;-71
2022/01/11 19:06:36;;;;;;;10.55;4.13;;;21.30;50.50;;;;;;4993812;28;20529;-70
2022/01/11 19:09:06;;;;;;;8.57;4.43;;;21.30;50.50;;;;;;5006274;28;20139;-70
2022/01/11 19:11:33;;;;;;;11.18;4.72;;;21.30;51.30;;;;;;5006200;28;20061;-69
2022/01/11 19:13:59;;;;;;;7.47;4.28;;;21.30;50.50;;;;;;5003271;28;20056;-69
2022/01/11 19:16:25;;;;;;;8.00;4.07;;;21.30;50.50;;;;;;5003787;28;20056;-68
2022/01/11 19:18:52;;;;;;;8.77;4.20;;;21.30;50.40;;;;;;5003870;28;20116;-69
2022/01/11 19:21:18;;;;;;;5.65;4.10;;;21.30;50.40;;;;;;5006902;28;20038;-70
2022/01/11 19:23:44;;;;;;;7.40;4.18;;;21.30;50.40;;;;;;4999531;28;20045;-69
2022/01/11 19:26:10;;;;;;;9.50;4.18;;;21.30;50.50;;;;;;5004915;28;20065;-69
2022/01/11 19:28:35;;;;;;;7.80;4.00;;;21.30;50.40;;;;;;5003879;28;20486;-69
2022/01/11 19:31:01;;;;;;;9.18;4.72;;;21.30;50.40;;;;;;5006791;28;20144;-70
2022/01/11 19:33:26;;;;;;;8.60;4.03;;;21.30;50.40;;;;;;5004967;28;20053;-69
2022/01/11 19:35:52;;;;;;;6.43;3.60;;;21.30;50.40;;;;;;5020555;28;20181;-69
2022/01/11 19:38:18;;;;;;;14.70;4.53;;;21.30;50.30;;;;;;5006236;28;20042;-69
2022/01/11 19:40:44;;;;;;;7.15;4.45;;;21.30;50.30;;;;;;5004908;28;20037;-67
2022/01/11 19:43:10;;;;;;;7.18;4.05;;;21.30;50.30;;;;;;5004818;28;20046;-68
2022/01/11 19:45:36;;;;;;;7.95;3.97;;;21.30;50.20;;;;;;5005064;28;20100;-70
2022/01/11 19:48:02;;;;;;;5.50;3.75;;;21.30;50.20;;;;;;5004299;28;20155;-70
2022/01/11 19:50:30;;;;;;;7.38;3.90;;;21.30;50.20;;;;;;5002384;28;20053;-69
2022/01/11 19:52:56;;;;;;;6.57;4.10;;;21.30;50.10;;;;;;5005585;28;20114;-69
2022/01/11 19:55:22;;;;;;;9.68;4.10;;;21.30;50.10;;;;;;5004668;28;20277;-69
2022/01/11 19:57:50;;;;;;;6.72;3.88;;;21.30;50.10;;;;;;5005062;28;20045;-70
2022/01/11 20:00:18;;;;;;;7.25;3.70;;;21.30;50.00;;;;;;5006373;28;20049;-69
2022/01/11 20:02:44;;;;;;;7.43;4.10;;;21.30;50.00;;;;;;5004400;28;20038;-69
2022/01/11 20:05:12;;;;;;;6.43;3.80;;;21.30;50.00;;;;;;5000604;28;20777;-70
2022/01/11 20:07:38;;;;;;;6.90;3.90;;;21.30;50.00;;;;;;5003484;28;20046;-70
2022/01/11 20:10:06;;;;;;;6.50;4.03;;;21.30;50.00;;;;;;5005581;28;20069;-70
2022/01/11 20:12:32;;;;;;;6.10;3.65;;;21.30;49.90;;;;;;5003548;28;20048;-71
2022/01/11 20:14:58;;;;;;;10.25;4.07;;;21.30;49.90;;;;;;5003806;28;20405;-68
2022/01/11 20:17:24;;;;;;;6.75;3.90;;;21.30;49.90;;;;;;5000287;28;20077;-69
2022/01/11 20:19:50;;;;;;;8.68;3.70;;;21.30;49.90;;;;;;5002311;28;20512;-69
2022/01/11 20:27:30;;;;;;;8.32;3.72;;;21.30;49.90;;;;;;5002476;28;20124;-69
2022/01/11 20:29:59;;;;;;;6.35;3.67;;;21.30;49.90;;;;;;5000955;28;20490;-69
2022/01/11 20:32:26;;;;;;;5.38;3.55;;;21.30;49.90;;;;;;5003075;28;20061;-69
2022/01/11 20:34:52;;;;;;;6.95;3.88;;;21.30;49.90;;;;;;5003643;28;20164;-70
2022/01/11 20:37:18;;;;;;;5.88;3.85;;;21.40;49.90;;;;;;5001757;28;20053;-70
2022/01/11 20:39:46;;;;;;;5.35;3.72;;;21.40;49.90;;;;;;5002266;28;20092;-69
2022/01/11 20:42:13;;;;;;;5.85;3.70;;;21.30;49.80;;;;;;5003108;28;20029;-69
2022/01/11 20:44:41;;;;;;;5.30;3.40;;;21.40;49.90;;;;;;5019178;28;21367;-69
2022/01/11 20:47:08;;;;;;;5.57;4.05;;;21.30;49.90;;;;;;5016727;28;20034;-69
2022/01/11 20:49:35;;;;;;;9.00;3.92;;;21.30;49.90;;;;;;5001077;28;20064;-70
2022/01/11 20:54:40;;;;;;;7.45;3.65;;;21.40;49.90;;;;;;5001611;28;20137;-69
2022/01/11 20:57:07;;;;;;;9.35;3.75;;;21.40;49.80;;;;;;5003899;28;20456;-69
2022/01/11 20:59:34;;;;;;;7.85;3.70;;;21.30;49.80;;;;;;5004271;28;20030;-68
2022/01/11 21:02:01;;;;;;;6.22;3.40;;;21.30;49.80;;;;;;5004300;28;20066;-69
2022/01/11 21:04:26;;;;;;;6.10;3.53;;;21.30;49.80;;;;;;5004255;28;20030;-69
2022/01/11 21:06:52;;;;;;;7.80;3.80;;;21.30;49.80;;;;;;5001718;28;20048;-69
2022/01/11 21:09:18;;;;;;;7.00;3.33;;;21.30;49.80;;;;;;5003676;28;20068;-70
2022/01/11 21:11:44;;;;;;;4.85;3.17;;;21.30;49.80;;;;;;5000409;28;20112;-68
2022/01/11 21:14:10;;;;;;;5.35;3.50;;;21.30;49.80;;;;;;5001305;28;20049;-70
2022/01/11 21:21:50;;;;;;;8.32;3.95;;;21.40;49.70;;;;;;5001126;28;19972;-69
2022/01/11 21:24:16;;;;;;;4.78;3.13;;;21.30;49.70;;;;;;5002981;28;20796;-70
2022/01/11 21:26:42;;;;;;;5.10;3.22;;;21.30;49.70;;;;;;5001003;28;20053;-70
2022/01/11 21:29:07;;;;;;;7.25;3.47;;;21.30;49.70;;;;;;5003586;28;20066;-68
2022/01/11 21:31:33;;;;;;;6.43;3.45;;;21.30;49.70;;;;;;5003966;28;20046;-69
2022/01/11 21:34:00;;;;;;;5.90;3.20;;;21.30;50.30;;;;;;5003154;28;20034;-70
2022/01/11 21:36:31;;;;;;;8.32;3.50;;;21.30;49.50;;;;;;5001707;28;20057;-71
2022/01/11 21:38:57;;;;;;;5.90;3.47;;;21.30;49.50;;;;;;5001494;28;20511;-70
2022/01/11 21:41:23;;;;;;;6.72;3.75;;;21.40;49.50;;;;;;5000540;28;21064;-70
2022/01/11 21:43:49;;;;;;;4.82;3.13;;;21.40;49.50;;;;;;5004200;28;20041;-69
2022/01/11 21:46:14;;;;;;;5.75;2.92;;;21.40;50.30;;;;;;5002051;28;20678;-71
2022/01/11 21:48:40;;;;;;;5.15;3.03;;;21.30;49.50;;;;;;5004718;28;20111;-69
2022/01/11 21:51:05;;;;;;;4.43;3.13;;;21.30;49.50;;;;;;5002610;28;20239;-71
2022/01/11 21:53:33;;;;;;;5.38;3.00;;;21.30;49.50;;;;;;4990157;28;20046;-68
2022/01/11 21:55:59;;;;;;;6.32;3.42;;;21.40;49.50;;;;;;5005585;28;20097;-69